sensor_id;sensor_type;location;lat;lon;timestamp;pressure;altitude;pressure_sealevel;temperature;humidity
76994;BME280;66749;47.406;18.822;2023-07-29T00:00:31;99930.75;;;20.19;79.25
76994;BME280;66749;47.406;18.822;2023-07-29T00:01:02;99928.94;;;20.20;79.23
76994;BME280;66749;47.406;18.822;2023-07-29T00:01:34;99922.81;;;20.19;78.53
76994;BME280;66749;47.406;18.822;2023-07-29T00:02:07;99928.13;;;20.19;78.75
76994;BME280;66749;47.406;18.822;2023-07-29T00:02:39;99929.25;;;20.17;79.44
76994;BME280;66749;47.406;18.822;2023-07-29T00:03:11;99928.56;;;20.15;79.67
76994;BME280;66749;47.406;18.822;2023-07-29T00:03:43;99929.56;;;20.14;79.41
76994;BME280;66749;47.406;18.822;2023-07-29T00:04:15;99927.38;;;20.09;79.32
76994;BME280;66749;47.406;18.822;2023-07-29T00:04:47;99929.06;;;20.10;79.63
76994;BME280;66749;47.406;18.822;2023-07-29T00:05:19;99933.50;;;20.10;79.65
76994;BME280;66749;47.406;18.822;2023-07-29T00:05:51;99931.56;;;20.12;79.26
76994;BME280;66749;47.406;18.822;2023-07-29T00:06:23;99927.91;;;20.13;79.64
76994;BME280;66749;47.406;18.822;2023-07-29T00:06:55;99920.97;;;20.12;79.51
76994;BME280;66749;47.406;18.822;2023-07-29T00:07:27;99928.22;;;20.10;79.50
76994;BME280;66749;47.406;18.822;2023-07-29T00:07:59;99928.22;;;20.10;79.16
76994;BME280;66749;47.406;18.822;2023-07-29T00:08:30;99924.59;;;20.11;79.65
76994;BME280;66749;47.406;18.822;2023-07-29T00:09:02;99922.91;;;20.10;79.04
76994;BME280;66749;47.406;18.822;2023-07-29T00:09:34;99927.09;;;20.12;79.23
76994;BME280;66749;47.406;18.822;2023-07-29T00:10:07;99927.09;;;20.12;79.26
76994;BME280;66749;47.406;18.822;2023-07-29T00:10:39;99927.09;;;20.12;78.99
76994;BME280;66749;47.406;18.822;2023-07-29T00:11:10;99929.56;;;20.14;78.94
76994;BME280;66749;47.406;18.822;2023-07-29T00:11:42;99926.91;;;20.14;78.88
76994;BME280;66749;47.406;18.822;2023-07-29T00:12:14;99923.44;;;20.13;79.15
76994;BME280;66749;47.406;18.822;2023-07-29T00:12:46;99925.44;;;20.11;79.38
76994;BME280;66749;47.406;18.822;2023-07-29T00:13:18;99925.72;;;20.08;78.98
76994;BME280;66749;47.406;18.822;2023-07-29T00:13:53;99920.44;;;20.08;79.04
76994;BME280;66749;47.406;18.822;2023-07-29T00:14:24;99920.75;;;20.05;79.20
76994;BME280;66749;47.406;18.822;2023-07-29T00:14:56;99926.56;;;20.09;79.32
76994;BME280;66749;47.406;18.822;2023-07-29T00:15:28;99926.56;;;20.09;79.14
76994;BME280;66749;47.406;18.822;2023-07-29T00:16:00;99921.94;;;20.11;79.36
76994;BME280;66749;47.406;18.822;2023-07-29T00:16:32;99925.56;;;20.10;78.69
76994;BME280;66749;47.406;18.822;2023-07-29T00:17:04;99918.59;;;20.09;78.94
76994;BME280;66749;47.406;18.822;2023-07-29T00:17:36;99923.59;;;20.12;79.60
76994;BME280;66749;47.406;18.822;2023-07-29T00:18:08;99920.97;;;20.12;78.85
76994;BME280;66749;47.406;18.822;2023-07-29T00:18:39;99922.91;;;20.10;78.81
76994;BME280;66749;47.406;18.822;2023-07-29T00:19:11;99919.44;;;20.09;79.71
76994;BME280;66749;47.406;18.822;2023-07-29T00:19:43;99922.25;;;20.08;79.42
76994;BME280;66749;47.406;18.822;2023-07-29T00:20:15;99928.22;;;20.10;79.46
76994;BME280;66749;47.406;18.822;2023-07-29T00:20:47;99918.59;;;20.09;79.59
76994;BME280;66749;47.406;18.822;2023-07-29T00:21:19;99924.06;;;20.07;78.71
76994;BME280;66749;47.406;18.822;2023-07-29T00:21:50;99926.56;;;20.09;78.89
76994;BME280;66749;47.406;18.822;2023-07-29T00:22:22;99925.22;;;20.05;79.25
76994;BME280;66749;47.406;18.822;2023-07-29T00:22:54;99929.69;;;20.04;79.83
76994;BME280;66749;47.406;18.822;2023-07-29T00:23:26;99923.56;;;20.04;79.04
76994;BME280;66749;47.406;18.822;2023-07-29T00:23:58;99923.88;;;20.01;79.89
76994;BME280;66749;47.406;18.822;2023-07-29T00:24:30;99923.03;;;20.00;79.26
76994;BME280;66749;47.406;18.822;2023-07-29T00:25:02;99923.88;;;20.01;79.14
76994;BME280;66749;47.406;18.822;2023-07-29T00:25:33;99923.03;;;20.00;79.73
76994;BME280;66749;47.406;18.822;2023-07-29T00:26:05;99923.03;;;20.00;79.32
76994;BME280;66749;47.406;18.822;2023-07-29T00:26:37;99923.03;;;20.00;80.03
76994;BME280;66749;47.406;18.822;2023-07-29T00:27:09;99922.88;;;20.02;79.53
76994;BME280;66749;47.406;18.822;2023-07-29T00:27:42;99927.34;;;20.01;79.65
76994;BME280;66749;47.406;18.822;2023-07-29T00:28:14;99924.88;;;20.00;79.37
76994;BME280;66749;47.406;18.822;2023-07-29T00:28:45;99929.88;;;20.03;78.97
76994;BME280;66749;47.406;18.822;2023-07-29T00:29:17;99919.94;;;20.05;79.55
76994;BME280;66749;47.406;18.822;2023-07-29T00:29:49;99920.38;;;20.00;79.66
76994;BME280;66749;47.406;18.822;2023-07-29T00:30:21;99923.88;;;20.01;78.88
76994;BME280;66749;47.406;18.822;2023-07-29T00:30:53;99914.28;;;20.00;79.04
76994;BME280;66749;47.406;18.822;2023-07-29T00:31:25;99918.72;;;19.99;79.82
76994;BME280;66749;47.406;18.822;2023-07-29T00:31:57;99925.03;;;19.98;79.80
76994;BME280;66749;47.406;18.822;2023-07-29T00:32:29;99918.56;;;20.01;78.86
76994;BME280;66749;47.406;18.822;2023-07-29T00:33:01;99923.88;;;20.01;78.88
76994;BME280;66749;47.406;18.822;2023-07-29T00:33:33;99918.06;;;19.97;79.49
76994;BME280;66749;47.406;18.822;2023-07-29T00:34:05;99917.09;;;19.98;79.14
76994;BME280;66749;47.406;18.822;2023-07-29T00:34:37;99915.59;;;19.95;79.83
76994;BME280;66749;47.406;18.822;2023-07-29T00:35:09;99922.72;;;19.95;79.24
76994;BME280;66749;47.406;18.822;2023-07-29T00:35:40;99919.06;;;19.96;79.26
76994;BME280;66749;47.406;18.822;2023-07-29T00:36:12;99922.72;;;19.95;79.78
76994;BME280;66749;47.406;18.822;2023-07-29T00:36:44;99923.66;;;19.94;78.93
76994;BME280;66749;47.406;18.822;2023-07-29T00:37:16;99919.84;;;19.88;79.14
76994;BME280;66749;47.406;18.822;2023-07-29T00:37:48;99925.28;;;19.87;79.21
76994;BME280;66749;47.406;18.822;2023-07-29T00:38:20;99921.81;;;19.86;79.88
76994;BME280;66749;47.406;18.822;2023-07-29T00:38:52;99918.50;;;19.84;80.06
76994;BME280;66749;47.406;18.822;2023-07-29T00:39:26;99914.03;;;19.85;79.73
76994;BME280;66749;47.406;18.822;2023-07-29T00:39:58;99909.72;;;19.84;79.76
76994;BME280;66749;47.406;18.822;2023-07-29T00:40:30;99913.53;;;19.81;80.04
76994;BME280;66749;47.406;18.822;2023-07-29T00:41:05;99924.13;;;19.81;79.94
76994;BME280;66749;47.406;18.822;2023-07-29T00:41:37;99923.78;;;19.84;79.59
76994;BME280;66749;47.406;18.822;2023-07-29T00:42:09;99926.75;;;19.81;80.03
76994;BME280;66749;47.406;18.822;2023-07-29T00:42:40;99927.06;;;19.78;79.51
76994;BME280;66749;47.406;18.822;2023-07-29T00:43:14;99926.72;;;19.73;80.27
76994;BME280;66749;47.406;18.822;2023-07-29T00:43:45;99923.25;;;19.73;80.21
76994;BME280;66749;47.406;18.822;2023-07-29T00:44:17;99918.63;;;19.75;79.80
76994;BME280;66749;47.406;18.822;2023-07-29T00:44:49;99928.38;;;19.74;80.16
76994;BME280;66749;47.406;18.822;2023-07-29T00:45:23;99922.91;;;19.76;79.62
76994;BME280;66749;47.406;18.822;2023-07-29T00:45:56;99925.72;;;19.74;79.95
76994;BME280;66749;47.406;18.822;2023-07-29T00:46:29;99924.69;;;19.67;80.08
76994;BME280;66749;47.406;18.822;2023-07-29T00:47:03;99921.88;;;19.68;80.40
76994;BME280;66749;47.406;18.822;2023-07-29T00:47:37;99923.25;;;19.73;80.23
76994;BME280;66749;47.406;18.822;2023-07-29T00:48:09;99919.72;;;19.72;80.12
76994;BME280;66749;47.406;18.822;2023-07-29T00:48:42;99927.00;;;19.70;80.26
76994;BME280;66749;47.406;18.822;2023-07-29T00:49:14;99925.03;;;19.72;80.45
76994;BME280;66749;47.406;18.822;2023-07-29T00:49:46;99933.66;;;19.74;79.44
76994;BME280;66749;47.406;18.822;2023-07-29T00:50:18;99921.44;;;19.73;79.49
76994;BME280;66749;47.406;18.822;2023-07-29T00:50:51;99926.84;;;19.72;79.45
76994;BME280;66749;47.406;18.822;2023-07-29T00:51:23;99929.00;;;19.68;80.04
76994;BME280;66749;47.406;18.822;2023-07-29T00:51:54;99928.66;;;19.71;79.97
76994;BME280;66749;47.406;18.822;2023-07-29T00:52:26;99923.53;;;19.70;80.01
76994;BME280;66749;47.406;18.822;2023-07-29T00:52:58;99920.06;;;19.69;80.14
76994;BME280;66749;47.406;18.822;2023-07-29T00:53:30;99917.41;;;19.69;80.20
76994;BME280;66749;47.406;18.822;2023-07-29T00:54:02;99923.16;;;19.64;79.99
76994;BME280;66749;47.406;18.822;2023-07-29T00:54:34;99918.03;;;19.63;80.30
76994;BME280;66749;47.406;18.822;2023-07-29T00:55:07;99919.69;;;19.64;80.18
76994;BME280;66749;47.406;18.822;2023-07-29T00:55:39;99912.56;;;19.64;79.91
76994;BME280;66749;47.406;18.822;2023-07-29T00:56:11;99916.75;;;19.67;79.42
76994;BME280;66749;47.406;18.822;2023-07-29T00:56:43;99912.91;;;19.61;79.93
76994;BME280;66749;47.406;18.822;2023-07-29T00:57:16;99911.00;;;19.54;80.30
76994;BME280;66749;47.406;18.822;2023-07-29T00:57:50;99912.81;;;19.53;79.50
76994;BME280;66749;47.406;18.822;2023-07-29T00:58:24;99912.16;;;19.51;80.23
76994;BME280;66749;47.406;18.822;2023-07-29T00:58:56;99908.81;;;19.49;79.62
76994;BME280;66749;47.406;18.822;2023-07-29T00:59:35;99914.63;;;19.53;80.01
76994;BME280;66749;47.406;18.822;2023-07-29T01:00:07;99912.16;;;19.51;79.38
76994;BME280;66749;47.406;18.822;2023-07-29T01:00:40;99914.31;;;19.56;79.33
76994;BME280;66749;47.406;18.822;2023-07-29T01:01:12;99911.81;;;19.54;79.73
76994;BME280;66749;47.406;18.822;2023-07-29T01:01:44;99912.81;;;19.53;79.03
76994;BME280;66749;47.406;18.822;2023-07-29T01:02:16;99915.31;;;19.55;79.57
76994;BME280;66749;47.406;18.822;2023-07-29T01:02:48;99912.00;;;19.53;79.03
76994;BME280;66749;47.406;18.822;2023-07-29T01:05:28;99915.56;;;19.44;79.83
76994;BME280;66749;47.406;18.822;2023-07-29T01:07:07;99911.94;;;19.45;79.75
76994;BME280;66749;47.406;18.822;2023-07-29T01:07:59;99915.19;;;19.38;80.49
76994;BME280;66749;47.406;18.822;2023-07-29T01:08:49;99910.88;;;19.37;80.20
76994;BME280;66749;47.406;18.822;2023-07-29T01:10:01;99914.38;;;19.38;79.51
76994;BME280;66749;47.406;18.822;2023-07-29T01:10:46;99909.91;;;19.38;80.17
76994;BME280;66749;47.406;18.822;2023-07-29T01:11:35;99912.72;;;19.37;79.95
76994;BME280;66749;47.406;18.822;2023-07-29T01:12:23;99906.09;;;19.41;80.02
76994;BME280;66749;47.406;18.822;2023-07-29T01:13:01;99908.09;;;19.39;79.71
76994;BME280;66749;47.406;18.822;2023-07-29T01:13:52;99908.09;;;19.39;79.77
76994;BME280;66749;47.406;18.822;2023-07-29T01:14:36;99909.91;;;19.38;80.23
76994;BME280;66749;47.406;18.822;2023-07-29T01:15:16;99901.97;;;19.38;79.64
76994;BME280;66749;47.406;18.822;2023-07-29T01:16:17;99905.59;;;19.37;80.41
76994;BME280;66749;47.406;18.822;2023-07-29T01:16:53;99907.56;;;19.35;79.74
76994;BME280;66749;47.406;18.822;2023-07-29T01:17:33;99902.28;;;19.35;80.38
76994;BME280;66749;47.406;18.822;2023-07-29T01:18:10;99907.56;;;19.35;80.44
76994;BME280;66749;47.406;18.822;2023-07-29T01:18:47;99911.88;;;19.36;80.51
76994;BME280;66749;47.406;18.822;2023-07-29T01:19:43;99912.88;;;19.35;80.09
76994;BME280;66749;47.406;18.822;2023-07-29T01:20:17;99910.50;;;19.32;80.13
76994;BME280;66749;47.406;18.822;2023-07-29T01:21:04;99913.81;;;19.34;79.67
76994;BME280;66749;47.406;18.822;2023-07-29T01:21:37;99909.69;;;19.32;80.42
76994;BME280;66749;47.406;18.822;2023-07-29T01:22:11;99916.47;;;19.34;80.15
76994;BME280;66749;47.406;18.822;2023-07-29T01:22:43;99915.13;;;19.30;80.33
76994;BME280;66749;47.406;18.822;2023-07-29T01:23:16;99916.78;;;19.31;79.67
76994;BME280;66749;47.406;18.822;2023-07-29T01:23:47;99915.81;;;19.32;80.20
76994;BME280;66749;47.406;18.822;2023-07-29T01:24:23;99917.78;;;19.30;80.02
76994;BME280;66749;47.406;18.822;2023-07-29T01:24:55;99914.16;;;19.31;80.24
76994;BME280;66749;47.406;18.822;2023-07-29T01:25:27;99909.84;;;19.30;80.13
76994;BME280;66749;47.406;18.822;2023-07-29T01:25:59;99915.59;;;19.26;80.46
76994;BME280;66749;47.406;18.822;2023-07-29T01:26:31;99921.03;;;19.24;80.20
76994;BME280;66749;47.406;18.822;2023-07-29T01:27:03;99925.19;;;19.27;80.58
76994;BME280;66749;47.406;18.822;2023-07-29T01:27:36;99917.25;;;19.27;80.51
76994;BME280;66749;47.406;18.822;2023-07-29T01:28:08;99919.88;;;19.27;80.53
76994;BME280;66749;47.406;18.822;2023-07-29T01:28:40;99923.00;;;19.22;80.46
76994;BME280;66749;47.406;18.822;2023-07-29T01:29:12;99916.50;;;19.17;80.69
76994;BME280;66749;47.406;18.822;2023-07-29T01:29:44;99921.97;;;19.15;80.19
76994;BME280;66749;47.406;18.822;2023-07-29T01:30:16;99922.78;;;19.16;80.22
76994;BME280;66749;47.406;18.822;2023-07-29T01:30:50;99929.91;;;19.15;80.49
76994;BME280;66749;47.406;18.822;2023-07-29T01:31:34;99921.97;;;19.15;80.72
76994;BME280;66749;47.406;18.822;2023-07-29T01:32:46;99921.56;;;19.10;80.61
76994;BME280;66749;47.406;18.822;2023-07-29T01:33:26;99919.69;;;19.02;80.57
76994;BME280;66749;47.406;18.822;2023-07-29T01:35:03;99923.47;;;19.00;80.76
76994;BME280;66749;47.406;18.822;2023-07-29T01:35:48;99922.09;;;18.96;80.86
76994;BME280;66749;47.406;18.822;2023-07-29T01:36:25;99915.88;;;18.97;80.81
76994;BME280;66749;47.406;18.822;2023-07-29T01:37:02;99922.09;;;18.96;80.72
76994;BME280;66749;47.406;18.822;2023-07-29T01:37:38;99924.91;;;18.94;81.09
76994;BME280;66749;47.406;18.822;2023-07-29T01:38:21;99921.59;;;18.92;81.09
76994;BME280;66749;47.406;18.822;2023-07-29T01:38:57;99918.13;;;18.92;80.64
76994;BME280;66749;47.406;18.822;2023-07-29T01:39:32;99917.13;;;18.93;80.82
76994;BME280;66749;47.406;18.822;2023-07-29T01:40:08;99920.75;;;18.92;80.65
76994;BME280;66749;47.406;18.822;2023-07-29T01:40:41;99919.78;;;18.93;80.73
76994;BME280;66749;47.406;18.822;2023-07-29T01:41:14;99924.41;;;18.91;81.14
76994;BME280;66749;47.406;18.822;2023-07-29T01:41:48;99928.03;;;18.90;81.59
76994;BME280;66749;47.406;18.822;2023-07-29T01:42:23;99932.63;;;18.88;81.68
76994;BME280;66749;47.406;18.822;2023-07-29T01:42:55;99933.31;;;18.90;81.70
76994;BME280;66749;47.406;18.822;2023-07-29T01:43:31;99932.44;;;18.89;81.13
76994;BME280;66749;47.406;18.822;2023-07-29T01:44:03;99934.97;;;18.91;81.16
76994;BME280;66749;47.406;18.822;2023-07-29T01:44:39;99929.69;;;18.91;81.18
76994;BME280;66749;47.406;18.822;2023-07-29T01:45:11;99924.41;;;18.91;81.07
76994;BME280;66749;47.406;18.822;2023-07-29T01:45:43;99931.34;;;18.92;81.53
76994;BME280;66749;47.406;18.822;2023-07-29T01:46:15;99919.94;;;18.91;81.10
76994;BME280;66749;47.406;18.822;2023-07-29T01:46:47;99922.75;;;18.90;81.42
76994;BME280;66749;47.406;18.822;2023-07-29T01:47:20;99921.75;;;18.91;81.16
76994;BME280;66749;47.406;18.822;2023-07-29T01:47:53;99921.06;;;18.89;81.14
76994;BME280;66749;47.406;18.822;2023-07-29T01:48:25;99927.63;;;18.84;81.29
76994;BME280;66749;47.406;18.822;2023-07-29T01:48:59;99932.53;;;18.79;81.67
76994;BME280;66749;47.406;18.822;2023-07-29T01:49:30;99931.03;;;18.77;81.54
76994;BME280;66749;47.406;18.822;2023-07-29T01:50:02;99932.16;;;18.74;81.39
76994;BME280;66749;47.406;18.822;2023-07-29T01:50:35;99927.72;;;18.75;81.78
76994;BME280;66749;47.406;18.822;2023-07-29T01:51:07;99928.38;;;18.77;81.59
76994;BME280;66749;47.406;18.822;2023-07-29T01:51:39;99933.00;;;18.75;81.25
76994;BME280;66749;47.406;18.822;2023-07-29T01:52:11;99926.72;;;18.76;81.23
76994;BME280;66749;47.406;18.822;2023-07-29T01:52:43;99932.16;;;18.74;81.03
76994;BME280;66749;47.406;18.822;2023-07-29T01:53:15;99940.38;;;18.71;80.98
76994;BME280;66749;47.406;18.822;2023-07-29T01:53:47;99926.34;;;18.71;81.16
76994;BME280;66749;47.406;18.822;2023-07-29T01:54:19;99929.13;;;18.69;81.34
76994;BME280;66749;47.406;18.822;2023-07-29T01:54:50;99928.31;;;18.69;80.90
76994;BME280;66749;47.406;18.822;2023-07-29T01:55:22;99933.59;;;18.69;81.15
76994;BME280;66749;47.406;18.822;2023-07-29T01:55:54;99923.84;;;18.69;81.38
76994;BME280;66749;47.406;18.822;2023-07-29T01:56:26;99928.72;;;18.64;81.08
76994;BME280;66749;47.406;18.822;2023-07-29T01:56:58;99927.88;;;18.64;81.18
76994;BME280;66749;47.406;18.822;2023-07-29T01:57:30;99927.06;;;18.63;81.16
76994;BME280;66749;47.406;18.822;2023-07-29T01:58:02;99932.34;;;18.63;81.20
76994;BME280;66749;47.406;18.822;2023-07-29T01:58:34;99934.31;;;18.61;81.28
76994;BME280;66749;47.406;18.822;2023-07-29T01:59:05;99927.88;;;18.64;80.74
76994;BME280;66749;47.406;18.822;2023-07-29T01:59:37;99929.69;;;18.63;81.12
76994;BME280;66749;47.406;18.822;2023-07-29T02:00:09;99915.97;;;18.60;81.15
76994;BME280;66749;47.406;18.822;2023-07-29T02:00:41;99926.53;;;18.60;81.27
76994;BME280;66749;47.406;18.822;2023-07-29T02:01:13;99924.00;;;18.58;81.39
76994;BME280;66749;47.406;18.822;2023-07-29T02:01:45;99923.34;;;18.56;81.20
76994;BME280;66749;47.406;18.822;2023-07-29T02:02:18;99917.06;;;18.57;81.10
76994;BME280;66749;47.406;18.822;2023-07-29T02:02:49;99924.31;;;18.55;81.04
76994;BME280;66749;47.406;18.822;2023-07-29T02:03:21;99921.53;;;18.56;81.19
76994;BME280;66749;47.406;18.822;2023-07-29T02:03:53;99922.50;;;18.55;81.12
76994;BME280;66749;47.406;18.822;2023-07-29T02:04:27;99923.06;;;18.59;81.00
76994;BME280;66749;47.406;18.822;2023-07-29T02:04:59;99928.19;;;18.61;81.27
76994;BME280;66749;47.406;18.822;2023-07-29T02:05:31;99924.00;;;18.58;81.23
76994;BME280;66749;47.406;18.822;2023-07-29T02:06:03;99916.25;;;18.56;81.00
76994;BME280;66749;47.406;18.822;2023-07-29T02:06:35;99925.16;;;18.55;81.23
76994;BME280;66749;47.406;18.822;2023-07-29T02:07:07;99922.34;;;18.57;81.35
76994;BME280;66749;47.406;18.822;2023-07-29T02:07:39;99915.41;;;18.56;81.25
76994;BME280;66749;47.406;18.822;2023-07-29T02:08:11;99919.72;;;18.57;81.63
76994;BME280;66749;47.406;18.822;2023-07-29T02:08:43;99909.13;;;18.57;81.45
76994;BME280;66749;47.406;18.822;2023-07-29T02:09:15;99914.91;;;18.52;81.71
76994;BME280;66749;47.406;18.822;2023-07-29T02:09:46;99913.06;;;18.53;81.70
76994;BME280;66749;47.406;18.822;2023-07-29T02:10:18;99917.66;;;18.51;81.70
76994;BME280;66749;47.406;18.822;2023-07-29T02:10:50;99917.66;;;18.51;81.54
76994;BME280;66749;47.406;18.822;2023-07-29T02:11:22;99919.03;;;18.55;81.74
76994;BME280;66749;47.406;18.822;2023-07-29T02:11:59;99922.34;;;18.57;81.50
76994;BME280;66749;47.406;18.822;2023-07-29T02:12:31;99918.22;;;18.54;81.50
76994;BME280;66749;47.406;18.822;2023-07-29T02:13:03;99915.16;;;18.49;81.94
76994;BME280;66749;47.406;18.822;2023-07-29T02:13:35;99918.66;;;18.50;81.29
76994;BME280;66749;47.406;18.822;2023-07-29T02:14:07;99921.16;;;18.51;81.71
76994;BME280;66749;47.406;18.822;2023-07-29T02:14:39;99916.72;;;18.52;82.32
76994;BME280;66749;47.406;18.822;2023-07-29T02:15:11;99924.25;;;18.47;82.29
76994;BME280;66749;47.406;18.822;2023-07-29T02:15:43;99917.97;;;18.48;82.62
76994;BME280;66749;47.406;18.822;2023-07-29T02:16:15;99921.28;;;18.50;82.29
76994;BME280;66749;47.406;18.822;2023-07-29T02:16:47;99913.22;;;18.51;82.96
76994;BME280;66749;47.406;18.822;2023-07-29T02:17:19;99918.38;;;18.53;82.51
76994;BME280;66749;47.406;18.822;2023-07-29T02:17:51;99914.75;;;18.54;82.63
76994;BME280;66749;47.406;18.822;2023-07-29T02:18:23;99924.16;;;18.56;82.68
76994;BME280;66749;47.406;18.822;2023-07-29T02:18:55;99918.72;;;18.58;82.66
76994;BME280;66749;47.406;18.822;2023-07-29T02:19:27;99922.34;;;18.57;82.54
76994;BME280;66749;47.406;18.822;2023-07-29T02:19:59;99921.38;;;18.58;82.73
76994;BME280;66749;47.406;18.822;2023-07-29T02:20:31;99915.81;;;18.61;82.58
76994;BME280;66749;47.406;18.822;2023-07-29T02:21:02;99912.19;;;18.62;82.34
76994;BME280;66749;47.406;18.822;2023-07-29T02:21:34;99916.47;;;18.63;82.25
76994;BME280;66749;47.406;18.822;2023-07-29T02:22:06;99912.19;;;18.62;82.68
76994;BME280;66749;47.406;18.822;2023-07-29T02:22:38;99914.97;;;18.61;82.80
76994;BME280;66749;47.406;18.822;2023-07-29T02:23:10;99925.72;;;18.59;82.64
76994;BME280;66749;47.406;18.822;2023-07-29T02:23:42;99923.59;;;18.63;82.92
76994;BME280;66749;47.406;18.822;2023-07-29T02:24:14;99926.06;;;18.64;82.96
76994;BME280;66749;47.406;18.822;2023-07-29T02:24:45;99927.06;;;18.63;83.10
76994;BME280;66749;47.406;18.822;2023-07-29T02:25:20;99919.78;;;18.65;82.84
76994;BME280;66749;47.406;18.822;2023-07-29T02:25:52;99926.38;;;18.61;82.90
76994;BME280;66749;47.406;18.822;2023-07-29T02:26:24;99924.56;;;18.62;82.56
76994;BME280;66749;47.406;18.822;2023-07-29T02:26:55;99918.28;;;18.63;82.34
76994;BME280;66749;47.406;18.822;2023-07-29T02:27:27;99928.19;;;18.61;82.77
76994;BME280;66749;47.406;18.822;2023-07-29T02:27:59;99932.66;;;18.60;82.53
76994;BME280;66749;47.406;18.822;2023-07-29T02:28:31;99923.72;;;18.61;81.94
76994;BME280;66749;47.406;18.822;2023-07-29T02:29:06;99932.34;;;18.63;82.15
76994;BME280;66749;47.406;18.822;2023-07-29T02:29:37;99931.66;;;18.61;81.77
76994;BME280;66749;47.406;18.822;2023-07-29T02:30:10;99931.00;;;18.59;82.05
76994;BME280;66749;47.406;18.822;2023-07-29T02:30:42;99930.13;;;18.58;81.63
76994;BME280;66749;47.406;18.822;2023-07-29T02:31:26;99932.50;;;18.62;81.62
76994;BME280;66749;47.406;18.822;2023-07-29T02:31:58;99928.34;;;18.59;81.69
76994;BME280;66749;47.406;18.822;2023-07-29T02:32:30;99932.50;;;18.62;81.87
76994;BME280;66749;47.406;18.822;2023-07-29T02:33:02;99926.38;;;18.61;81.65
76994;BME280;66749;47.406;18.822;2023-07-29T02:33:33;99931.00;;;18.59;81.76
76994;BME280;66749;47.406;18.822;2023-07-29T02:34:06;99923.34;;;18.56;81.99
76994;BME280;66749;47.406;18.822;2023-07-29T02:34:37;99928.47;;;18.57;81.92
76994;BME280;66749;47.406;18.822;2023-07-29T02:35:09;99927.63;;;18.57;81.61
76994;BME280;66749;47.406;18.822;2023-07-29T02:35:41;99925.97;;;18.56;81.66
76994;BME280;66749;47.406;18.822;2023-07-29T02:36:13;99923.66;;;18.53;81.73
76994;BME280;66749;47.406;18.822;2023-07-29T02:36:45;99929.63;;;18.55;81.84
76994;BME280;66749;47.406;18.822;2023-07-29T02:37:17;99932.09;;;18.56;81.65
76994;BME280;66749;47.406;18.822;2023-07-29T02:37:52;99926.97;;;18.55;81.39
76994;BME280;66749;47.406;18.822;2023-07-29T02:38:23;99933.25;;;18.54;81.51
76994;BME280;66749;47.406;18.822;2023-07-29T02:38:56;99934.38;;;18.51;81.37
76994;BME280;66749;47.406;18.822;2023-07-29T02:39:28;99929.91;;;18.52;81.84
76994;BME280;66749;47.406;18.822;2023-07-29T02:39:59;99938.28;;;18.47;81.93
76994;BME280;66749;47.406;18.822;2023-07-29T02:40:32;99932.16;;;18.47;81.83
76994;BME280;66749;47.406;18.822;2023-07-29T02:41:03;99929.22;;;18.50;81.53
76994;BME280;66749;47.406;18.822;2023-07-29T02:41:35;99931.84;;;18.50;81.44
76994;BME280;66749;47.406;18.822;2023-07-29T02:42:07;99932.69;;;18.50;81.56
76994;BME280;66749;47.406;18.822;2023-07-29T02:42:39;99932.84;;;18.49;81.67
76994;BME280;66749;47.406;18.822;2023-07-29T02:43:11;99937.16;;;18.50;81.42
76994;BME280;66749;47.406;18.822;2023-07-29T02:43:43;99937.16;;;18.50;81.26
76994;BME280;66749;47.406;18.822;2023-07-29T02:44:19;99934.81;;;18.47;81.39
76994;BME280;66749;47.406;18.822;2023-07-29T02:44:51;99928.53;;;18.48;81.10
76994;BME280;66749;47.406;18.822;2023-07-29T02:45:23;99925.91;;;18.48;nan
76994;BME280;66749;47.406;18.822;2023-07-29T02:45:55;99933.31;;;18.44;81.75
76994;BME280;66749;47.406;18.822;2023-07-29T02:46:27;99939.69;;;18.42;81.28
76994;BME280;66749;47.406;18.822;2023-07-29T02:46:59;99930.78;;;18.43;81.35
76994;BME280;66749;47.406;18.822;2023-07-29T02:47:31;99933.56;;;18.41;81.34
76994;BME280;66749;47.406;18.822;2023-07-29T02:48:03;99934.41;;;18.42;81.18
76994;BME280;66749;47.406;18.822;2023-07-29T02:48:34;99931.09;;;18.40;81.18
76994;BME280;66749;47.406;18.822;2023-07-29T02:49:06;99933.72;;;18.40;81.31
76994;BME280;66749;47.406;18.822;2023-07-29T02:49:38;99933.06;;;18.38;81.68
76994;BME280;66749;47.406;18.822;2023-07-29T02:50:10;99938.63;;;18.35;81.40
76994;BME280;66749;47.406;18.822;2023-07-29T02:50:42;99939.31;;;18.37;81.62
76994;BME280;66749;47.406;18.822;2023-07-29T02:51:14;99928.88;;;18.35;81.48
76994;BME280;66749;47.406;18.822;2023-07-29T02:51:46;99933.34;;;18.35;81.86
76994;BME280;66749;47.406;18.822;2023-07-29T02:52:18;99932.50;;;18.34;81.74
76994;BME280;66749;47.406;18.822;2023-07-29T02:52:50;99931.53;;;18.35;82.01
76994;BME280;66749;47.406;18.822;2023-07-29T02:53:22;99941.72;;;18.30;82.15
76994;BME280;66749;47.406;18.822;2023-07-29T02:53:54;99933.63;;;18.32;82.11
76994;BME280;66749;47.406;18.822;2023-07-29T02:54:26;99938.25;;;18.29;81.69
76994;BME280;66749;47.406;18.822;2023-07-29T02:54:58;99936.28;;;18.32;81.89
76994;BME280;66749;47.406;18.822;2023-07-29T02:55:30;99935.31;;;18.33;82.12
76994;BME280;66749;47.406;18.822;2023-07-29T02:56:03;99936.13;;;18.33;81.96
76994;BME280;66749;47.406;18.822;2023-07-29T02:56:35;99942.25;;;18.34;82.05
76994;BME280;66749;47.406;18.822;2023-07-29T02:57:07;99939.75;;;18.32;82.06
76994;BME280;66749;47.406;18.822;2023-07-29T02:57:39;99946.19;;;18.29;82.62
76994;BME280;66749;47.406;18.822;2023-07-29T02:58:11;99932.97;;;18.29;82.62
76994;BME280;66749;47.406;18.822;2023-07-29T02:58:43;99938.09;;;18.31;82.51
76994;BME280;66749;47.406;18.822;2023-07-29T02:59:16;99937.25;;;18.30;82.56